Time,TemperatureF,DewpointF,PressureIn,WindDirection,WindDirectionDegrees,WindSpeedMPH,WindSpeedGustMPH,Humidity,HourlyPrecipIn,Conditions,Clouds,dailyrainin,SoftwareType,DateUTC
2013-10-04 00:00:00,61.6,59.0,30.05,WSW,245,0.0,0.0,92,0.00,,,0.00,weatherlink.com 1.10,2013-10-04 04:00:00,
2013-10-04 00:45:00,61.1,59.0,30.04,WSW,257,0.0,0.0,93,0.00,,,0.00,weatherlink.com 1.10,2013-10-04 04:45:00,
2013-10-04 01:00:00,60.9,59.0,30.05,WSW,257,0.0,0.0,92,0.00,,,0.00,weatherlink.com 1.10,2013-10-04 05:00:00,
2013-10-04 01:16:00,60.9,59.0,30.05,WSW,257,0.0,0.0,93,0.00,,,0.00,weatherlink.com 1.10,2013-10-04 05:16:00,
2013-10-04 01:30:00,60.7,59.0,30.05,WSW,257,0.0,0.0,93,0.00,,,0.00,weatherlink.com 1.10,2013-10-04 05:30:00,
2013-10-04 01:45:00,60.9,59.0,30.05,WSW,257,0.0,0.0,94,0.00,,,0.00,weatherlink.com 1.10,2013-10-04 05:45:00,
2013-10-04 02:00:00,60.9,60.0,30.04,WSW,257,0.0,0.0,95,0.00,,,0.00,weatherlink.com 1.10,2013-10-04 06:00:00,
2013-10-04 02:15:00,60.8,59.0,30.04,WSW,257,0.0,0.0,95,0.00,,,0.00,weatherlink.com 1.10,2013-10-04 06:15:00,
2013-10-04 02:30:00,60.5,59.0,30.04,WSW,257,0.0,0.0,95,0.00,,,0.00,weatherlink.com 1.10,2013-10-04 06:30:00,
2013-10-04 02:45:00,60.3,59.0,30.03,WSW,257,0.0,0.0,95,0.00,,,0.00,weatherlink.com 1.10,2013-10-04 06:45:00,
2013-10-04 03:01:00,60.1,59.0,30.03,WSW,257,0.0,0.0,96,0.00,,,0.00,weatherlink.com 1.10,2013-10-04 07:01:00,
2013-10-04 03:16:00,60.1,59.0,30.02,WSW,257,0.0,0.0,96,0.00,,,0.00,weatherlink.com 1.10,2013-10-04 07:16:00,
2013-10-04 03:31:00,60.0,59.0,30.02,WSW,257,0.0,0.0,96,0.00,,,0.00,weatherlink.com 1.10,2013-10-04 07:31:00,
2013-10-04 03:46:00,59.8,59.0,30.02,WSW,256,0.0,1.0,96,0.00,,,0.00,weatherlink.com 1.10,2013-10-04 07:46:00,
2013-10-04 04:01:00,59.3,58.0,30.02,WSW,257,0.0,0.0,96,0.00,,,0.00,weatherlink.com 1.10,2013-10-04 08:01:00,
2013-10-04 04:16:00,59.1,58.0,30.02,WSW,256,0.0,0.0,96,0.00,,,0.00,weatherlink.com 1.10,2013-10-04 08:16:00,
2013-10-04 04:31:00,58.9,58.0,30.03,WSW,256,0.0,0.0,96,0.00,,,0.00,weatherlink.com 1.10,2013-10-04 08:31:00,
2013-10-04 04:46:00,-999.0,-99.9,30.03,North,-999,-999.0,-999.0,-999,0.00,,,0.00,weatherlink.com 1.10,2013-10-04 08:46:00,
2013-10-04 05:01:00,-999.0,-99.9,30.02,North,-999,-999.0,-999.0,-999,0.00,,,0.00,weatherlink.com 1.10,2013-10-04 09:01:00,
2013-10-04 05:16:00,-999.0,-99.9,30.02,North,-999,-999.0,-999.0,-999,0.00,,,0.00,weatherlink.com 1.10,2013-10-04 09:16:00,
2013-10-04 05:31:00,-999.0,-99.9,30.03,North,-999,-999.0,-999.0,-999,0.00,,,0.00,weatherlink.com 1.10,2013-10-04 09:31:00,
2013-10-04 05:46:00,-999.0,-99.9,30.03,North,-999,-999.0,-999.0,-999,0.00,,,0.00,weatherlink.com 1.10,2013-10-04 09:46:00,
2013-10-04 06:01:00,-999.0,-99.9,30.03,North,-999,-999.0,-999.0,-999,0.00,,,0.00,weatherlink.com 1.10,2013-10-04 10:01:00,
2013-10-04 06:16:00,-999.0,-99.9,30.03,North,-999,-999.0,-999.0,-999,0.00,,,0.00,weatherlink.com 1.10,2013-10-04 10:16:00,
2013-10-04 06:31:00,-999.0,-99.9,30.03,North,-999,-999.0,-999.0,-999,0.00,,,0.00,weatherlink.com 1.10,2013-10-04 10:31:00,
2013-10-04 06:46:00,-999.0,-99.9,30.03,North,-999,-999.0,-999.0,-999,0.00,,,0.00,weatherlink.com 1.10,2013-10-04 10:46:00,
2013-10-04 07:01:00,-999.0,-99.9,30.03,North,-999,-999.0,-999.0,-999,0.00,,,0.00,weatherlink.com 1.10,2013-10-04 11:01:00,
2013-10-04 07:16:00,-999.0,-99.9,30.03,North,-999,-999.0,-999.0,-999,0.00,,,0.00,weatherlink.com 1.10,2013-10-04 11:16:00,
2013-10-04 07:31:00,-999.0,-99.9,30.04,North,-999,-999.0,-999.0,-999,0.00,,,0.00,weatherlink.com 1.10,2013-10-04 11:31:00,
2013-10-04 07:46:00,-999.0,-99.9,30.04,North,-999,-999.0,-999.0,-999,0.00,,,0.00,weatherlink.com 1.10,2013-10-04 11:46:00,
2013-10-04 08:02:00,-999.0,-99.9,30.04,North,-999,-999.0,-999.0,-999,0.00,,,0.00,weatherlink.com 1.10,2013-10-04 12:02:00,
2013-10-04 08:17:00,-999.0,-99.9,30.04,North,-999,-999.0,-999.0,-999,0.00,,,0.00,weatherlink.com 1.10,2013-10-04 12:17:00,
2013-10-04 08:32:00,-999.0,-99.9,30.04,North,-999,-999.0,-999.0,-999,0.00,,,0.00,weatherlink.com 1.10,2013-10-04 12:32:00,
2013-10-04 08:47:00,-999.0,-99.9,30.04,North,-999,-999.0,-999.0,-999,0.00,,,0.00,weatherlink.com 1.10,2013-10-04 12:47:00,
2013-10-04 09:02:00,-999.0,-99.9,30.05,North,-999,-999.0,-999.0,-999,0.00,,,0.00,weatherlink.com 1.10,2013-10-04 13:02:00,
2013-10-04 09:17:00,-999.0,-99.9,30.05,North,-999,-999.0,-999.0,-999,0.00,,,0.00,weatherlink.com 1.10,2013-10-04 13:17:00,
2013-10-04 09:32:00,-999.0,-99.9,30.04,North,-999,-999.0,-999.0,-999,0.00,,,0.00,weatherlink.com 1.10,2013-10-04 13:32:00,
2013-10-04 09:47:00,-999.0,-99.9,30.04,North,-999,-999.0,-999.0,-999,0.00,,,0.00,weatherlink.com 1.10,2013-10-04 13:47:00,
2013-10-04 10:02:00,-999.0,-99.9,30.04,North,-999,-999.0,-999.0,-999,0.00,,,0.00,weatherlink.com 1.10,2013-10-04 14:02:00,
2013-10-04 10:17:00,-999.0,-99.9,30.03,North,-999,-999.0,-999.0,-999,0.00,,,0.00,weatherlink.com 1.10,2013-10-04 14:17:00,
2013-10-04 10:32:00,-999.0,-99.9,30.03,North,-999,-999.0,-999.0,-999,0.00,,,0.00,weatherlink.com 1.10,2013-10-04 14:32:00,
2013-10-04 10:47:00,-999.0,-99.9,30.03,North,-999,-999.0,-999.0,-999,0.00,,,0.00,weatherlink.com 1.10,2013-10-04 14:47:00,
2013-10-04 11:02:00,-999.0,-99.9,30.02,North,-999,-999.0,-999.0,-999,0.00,,,0.00,weatherlink.com 1.10,2013-10-04 15:02:00,
2013-10-04 11:17:00,-999.0,-99.9,30.02,North,-999,-999.0,-999.0,-999,0.00,,,0.00,weatherlink.com 1.10,2013-10-04 15:17:00,
2013-10-04 11:33:00,-999.0,-99.9,30.02,North,-999,-999.0,-999.0,-999,0.00,,,0.00,weatherlink.com 1.10,2013-10-04 15:33:00,
2013-10-04 11:48:00,-999.0,-99.9,30.02,North,-999,-999.0,-999.0,-999,0.00,,,0.00,weatherlink.com 1.10,2013-10-04 15:48:00,
2013-10-04 12:03:00,-999.0,-99.9,30.01,North,-999,-999.0,-999.0,-999,0.00,,,0.00,weatherlink.com 1.10,2013-10-04 16:03:00,
2013-10-04 12:18:00,-999.0,-99.9,30.02,North,-999,-999.0,-999.0,-999,0.00,,,0.00,weatherlink.com 1.10,2013-10-04 16:18:00,
2013-10-04 12:33:00,72.6,67.0,30.01,East,101,0.0,4.0,83,0.00,,,0.00,weatherlink.com 1.10,2013-10-04 16:33:00,
2013-10-04 12:48:00,71.1,66.0,30.01,ENE,71,0.0,2.0,84,0.00,,,0.00,weatherlink.com 1.10,2013-10-04 16:48:00,
2013-10-04 13:03:00,72.1,66.0,30.00,ENE,65,3.0,4.0,82,0.00,,,0.00,weatherlink.com 1.10,2013-10-04 17:03:00,
2013-10-04 13:18:00,71.5,66.0,30.00,ENE,62,2.0,3.0,83,0.00,,,0.00,weatherlink.com 1.10,2013-10-04 17:18:00,
2013-10-04 13:33:00,70.9,66.0,29.99,ENE,75,1.0,3.0,84,0.00,,,0.00,weatherlink.com 1.10,2013-10-04 17:33:00,
2013-10-04 14:03:00,70.3,66.0,29.99,ENE,66,1.0,3.0,85,0.00,,,0.00,weatherlink.com 1.10,2013-10-04 18:03:00,
2013-10-04 14:18:00,69.9,66.0,29.98,East,91,1.0,2.0,86,0.00,,,0.00,weatherlink.com 1.10,2013-10-04 18:18:00,
2013-10-04 14:33:00,69.2,65.0,29.98,East,81,3.0,3.0,87,0.00,,,0.00,weatherlink.com 1.10,2013-10-04 18:33:00,
2013-10-04 14:48:00,68.4,65.0,29.98,East,90,2.0,4.0,89,0.00,,,0.00,weatherlink.com 1.10,2013-10-04 18:48:00,
2013-10-04 15:03:00,68.0,65.0,29.98,East,79,3.0,3.0,91,0.00,,,0.00,weatherlink.com 1.10,2013-10-04 19:03:00,
2013-10-04 15:18:00,67.7,65.0,29.98,ENE,78,2.0,4.0,92,0.00,,,0.00,weatherlink.com 1.10,2013-10-04 19:18:00,
2013-10-04 15:33:00,67.6,65.0,29.97,ENE,74,3.0,5.0,92,0.00,,,0.00,weatherlink.com 1.10,2013-10-04 19:33:00,
2013-10-04 15:48:00,67.2,65.0,29.98,ENE,77,4.0,6.0,92,0.00,,,0.00,weatherlink.com 1.10,2013-10-04 19:48:00,
2013-10-04 16:03:00,66.3,64.0,29.98,East,81,5.0,8.0,92,0.00,,,0.00,weatherlink.com 1.10,2013-10-04 20:03:00,
2013-10-04 16:18:00,66.2,63.0,29.98,ENE,78,5.0,7.0,90,0.00,,,0.00,weatherlink.com 1.10,2013-10-04 20:18:00,
2013-10-04 16:33:00,66.2,63.0,29.98,East,85,6.0,7.0,90,0.00,,,0.00,weatherlink.com 1.10,2013-10-04 20:33:00,
2013-10-04 16:48:00,66.0,62.0,29.98,ENE,71,6.0,7.0,88,0.00,,,0.00,weatherlink.com 1.10,2013-10-04 20:48:00,
2013-10-04 17:03:00,65.9,62.0,29.99,East,81,5.0,6.0,88,0.00,,,0.00,weatherlink.com 1.10,2013-10-04 21:03:00,
2013-10-04 17:18:00,66.0,62.0,29.99,ENE,75,4.0,5.0,87,0.00,,,0.00,weatherlink.com 1.10,2013-10-04 21:18:00,
2013-10-04 17:33:00,65.6,62.0,30.00,ENE,78,2.0,4.0,88,0.00,,,0.00,weatherlink.com 1.10,2013-10-04 21:33:00,
2013-10-04 17:48:00,65.5,62.0,29.99,ENE,78,4.0,6.0,89,0.00,,,0.00,weatherlink.com 1.10,2013-10-04 21:48:00,
2013-10-04 18:04:00,65.1,62.0,29.99,ENE,71,4.0,6.0,89,0.00,,,0.00,weatherlink.com 1.10,2013-10-04 22:04:00,
2013-10-04 18:18:00,64.9,62.0,30.00,ENE,72,2.0,5.0,90,0.00,,,0.00,weatherlink.com 1.10,2013-10-04 22:18:00,
2013-10-04 18:33:00,64.6,62.0,30.01,ENE,64,1.0,4.0,90,0.00,,,0.00,weatherlink.com 1.10,2013-10-04 22:33:00,
2013-10-04 18:48:00,64.5,62.0,30.00,ENE,77,2.0,4.0,91,0.00,,,0.00,weatherlink.com 1.10,2013-10-04 22:48:00,
2013-10-04 19:03:00,64.2,62.0,30.01,ENE,70,2.0,3.0,91,0.00,,,0.00,weatherlink.com 1.10,2013-10-04 23:03:00,
2013-10-04 19:18:00,63.8,61.0,30.01,ENE,78,1.0,3.0,91,0.00,,,0.00,weatherlink.com 1.10,2013-10-04 23:18:00,
2013-10-04 19:33:00,63.9,61.0,30.02,ENE,77,0.0,3.0,91,0.00,,,0.00,weatherlink.com 1.10,2013-10-04 23:33:00,
2013-10-04 19:48:00,63.4,61.0,30.02,ENE,67,2.0,2.0,91,0.00,,,0.00,weatherlink.com 1.10,2013-10-04 23:48:00,
2013-10-04 20:03:00,63.2,60.0,30.02,ENE,66,1.0,3.0,90,0.00,,,0.00,weatherlink.com 1.10,2013-10-05 00:03:00,
2013-10-04 20:18:00,62.9,60.0,30.02,ENE,72,2.0,3.0,90,0.00,,,0.00,weatherlink.com 1.10,2013-10-05 00:18:00,
2013-10-04 20:33:00,62.6,60.0,30.03,ENE,71,1.0,2.0,90,0.00,,,0.00,weatherlink.com 1.10,2013-10-05 00:33:00,
2013-10-04 20:48:00,62.3,59.0,30.03,East,88,1.0,2.0,90,0.00,,,0.00,weatherlink.com 1.10,2013-10-05 00:48:00,
2013-10-04 21:03:00,62.1,60.0,30.03,ENE,64,2.0,4.0,91,0.00,,,0.00,weatherlink.com 1.10,2013-10-05 01:03:00,
2013-10-04 21:18:00,61.9,59.0,30.03,ENE,71,1.0,4.0,91,0.00,,,0.00,weatherlink.com 1.10,2013-10-05 01:18:00,
2013-10-04 21:33:00,61.6,59.0,30.03,East,85,1.0,3.0,91,0.00,,,0.00,weatherlink.com 1.10,2013-10-05 01:33:00,
2013-10-04 21:48:00,61.4,59.0,30.02,ENE,67,0.0,3.0,92,0.00,,,0.00,weatherlink.com 1.10,2013-10-05 01:48:00,
2013-10-04 22:03:00,61.1,59.0,30.02,ENE,75,0.0,1.0,92,0.00,,,0.00,weatherlink.com 1.10,2013-10-05 02:03:00,
2013-10-04 22:18:00,60.7,59.0,30.02,ENE,78,0.0,1.0,93,0.00,,,0.00,weatherlink.com 1.10,2013-10-05 02:18:00,
2013-10-04 22:33:00,60.5,59.0,30.02,ENE,68,0.0,2.0,93,0.00,,,0.00,weatherlink.com 1.10,2013-10-05 02:33:00,
2013-10-04 22:48:00,60.6,59.0,30.02,ENE,63,0.0,2.0,94,0.00,,,0.00,weatherlink.com 1.10,2013-10-05 02:48:00,
2013-10-04 23:03:00,60.7,59.0,30.03,ENE,72,1.0,4.0,94,0.00,,,0.00,weatherlink.com 1.10,2013-10-05 03:03:00,
2013-10-04 23:18:00,60.5,59.0,30.03,East,85,2.0,4.0,93,0.00,,,0.00,weatherlink.com 1.10,2013-10-05 03:18:00,
2013-10-04 23:33:00,60.4,58.0,30.02,East,79,1.0,3.0,93,0.00,,,0.00,weatherlink.com 1.10,2013-10-05 03:33:00,
2013-10-04 23:48:00,60.3,58.0,30.02,ENE,65,2.0,3.0,93,0.00,,,0.00,weatherlink.com 1.10,2013-10-05 03:48:00,